Time;durP1;ratioP1;P1;durP2;ratioP2;P2;SDS_P1;SDS_P2;PMS_P1;PMS_P2;Temp;Humidity;BMP_temperature;BMP_pressure;BME280_temperature;BME280_humidity;BME280_pressure;Samples;Min_cycle;Max_cycle;Signal;HPM_P1;HPM_P2
2022/12/04 00:01:26;;;;;;;17.02;15.35;;;;;;;5.31;78.85;95826.13;5019891;28;20219;-70
2022/12/04 00:03:57;;;;;;;18.20;16.50;;;;;;;5.31;78.81;95826.13;5019011;28;20191;-70
2022/12/04 00:06:27;;;;;;;17.17;15.57;;;;;;;5.28;78.53;95833.00;5019896;28;20213;-70
2022/12/04 00:08:55;;;;;;;16.90;15.40;;;;;;;5.27;78.54;95836.88;5018776;28;20272;-70
2022/12/04 00:11:25;;;;;;;17.75;15.98;;;;;;;5.27;78.74;95825.94;5019166;28;20207;-70
2022/12/04 00:13:53;;;;;;;17.50;15.73;;;;;;;5.27;78.84;95836.88;5019395;28;20214;-70
2022/12/04 00:16:29;;;;;;;16.98;15.35;;;;;;;5.28;79.05;95834.94;5019433;28;20199;-70
2022/12/04 00:18:57;;;;;;;18.17;16.45;;;;;;;5.25;78.75;95833.59;5019878;28;20198;-70
2022/12/04 00:21:30;;;;;;;18.02;16.42;;;;;;;5.26;78.95;95840.69;5020007;28;20237;-70
2022/12/04 00:24:01;;;;;;;18.35;16.60;;;;;;;5.24;79.12;95842.94;5003128;28;20282;-70
2022/12/04 00:26:33;;;;;;;18.35;16.55;;;;;;;5.25;78.76;95843.75;5019178;28;20234;-70
2022/12/04 00:29:03;;;;;;;17.95;16.25;;;;;;;5.21;79.24;95834.53;5018723;28;20661;-70
2022/12/04 00:31:33;;;;;;;18.42;16.55;;;;;;;5.18;79.20;95835.91;5018693;28;20675;-70
2022/12/04 00:34:01;;;;;;;18.95;17.15;;;;;;;5.17;79.45;95847.16;5018736;28;20635;-70
2022/12/04 00:36:30;;;;;;;18.92;17.13;;;;;;;5.20;79.35;95835.63;5016718;28;20289;-70
2022/12/04 00:38:59;;;;;;;20.05;18.05;;;;;;;5.23;79.32;95848.72;5018421;28;20210;-70
2022/12/04 00:41:29;;;;;;;19.35;17.45;;;;;;;5.22;79.23;95842.41;5019004;28;20211;-70
2022/12/04 00:43:58;;;;;;;18.30;16.60;;;;;;;5.23;79.34;95837.78;5019445;28;20263;-70
2022/12/04 00:46:26;;;;;;;18.17;16.38;;;;;;;5.19;79.10;95839.47;5019450;28;20239;-70
2022/12/04 00:48:58;;;;;;;18.35;16.65;;;;;;;5.20;79.44;95841.09;5019491;28;20187;-70
2022/12/04 00:51:25;;;;;;;18.67;16.77;;;;;;;5.21;79.43;95845.47;5018934;28;20257;-70
2022/12/04 00:53:55;;;;;;;19.05;17.27;;;;;;;5.22;79.46;95847.88;5018321;28;20206;-70
2022/12/04 00:56:26;;;;;;;18.88;16.95;;;;;;;5.25;79.33;95843.75;5018593;28;20191;-70
2022/12/04 00:58:56;;;;;;;19.25;17.35;;;;;;;5.22;79.23;95844.34;5019164;28;20180;-70
2022/12/04 01:01:28;;;;;;;19.00;17.10;;;;;;;5.18;79.25;95846.06;5018797;28;20192;-70
2022/12/04 01:03:58;;;;;;;18.88;16.98;;;;;;;5.11;78.70;95849.16;5017856;28;20214;-70
2022/12/04 01:06:27;;;;;;;19.38;17.58;;;;;;;5.07;78.83;95839.94;5018868;28;20200;-70
2022/12/04 01:08:58;;;;;;;18.75;17.05;;;;;;;5.05;79.38;95845.72;5018644;28;20202;-70
2022/12/04 01:11:28;;;;;;;19.00;17.20;;;;;;;5.07;79.60;95845.41;5034695;28;20195;-70
2022/12/04 01:13:57;;;;;;;18.77;16.98;;;;;;;5.12;80.16;95849.97;5018666;28;20206;-70
2022/12/04 01:16:25;;;;;;;18.40;16.70;;;;;;;5.15;79.55;95843.91;5017961;28;20231;-70
2022/12/04 01:18:54;;;;;;;19.00;17.20;;;;;;;5.14;79.68;95842.28;5034143;28;20207;-70
2022/12/04 01:21:27;;;;;;;18.08;16.35;;;;;;;5.09;79.52;95835.00;5017840;28;20187;-70
2022/12/04 01:24:03;;;;;;;18.15;16.45;;;;;;;5.02;79.26;95834.56;5017309;28;20195;-70
2022/12/04 01:26:32;;;;;;;18.73;16.90;;;;;;;5.02;79.70;95831.84;5017201;28;20287;-70
2022/12/04 01:29:01;;;;;;;18.70;16.83;;;;;;;5.03;79.90;95838.91;5017599;28;20203;-70
2022/12/04 01:31:30;;;;;;;18.25;16.60;;;;;;;5.06;80.37;95838.31;5016227;28;20207;-70
2022/12/04 01:33:58;;;;;;;20.55;18.45;;;;;;;5.07;80.52;95834.47;5016824;28;20218;-70
2022/12/04 01:36:31;;;;;;;19.13;17.33;;;;;;;5.08;80.23;95833.34;5017701;28;20187;-70
2022/12/04 01:39:00;;;;;;;17.90;16.20;;;;;;;5.12;80.14;95836.31;5018366;28;20195;-70
2022/12/04 01:41:30;;;;;;;18.55;16.65;;;;;;;5.12;80.12;95836.31;5015045;28;20210;-70
2022/12/04 01:44:16;;;;;;;18.58;16.13;;;;;;;5.09;80.13;95834.19;5018510;28;20626;-70
2022/12/04 01:46:48;;;;;;;18.10;16.27;;;;;;;5.10;80.45;95836.63;5017162;28;20198;-70
2022/12/04 01:49:21;;;;;;;18.33;16.48;;;;;;;5.10;80.10;95822.94;5016633;28;20199;-70
2022/12/04 01:51:54;;;;;;;20.80;18.70;;;;;;;5.04;79.70;95824.13;5016773;28;20199;-70
2022/12/04 01:54:27;;;;;;;20.98;18.98;;;;;;;5.00;79.38;95825.84;5016962;28;20194;-70
2022/12/04 01:57:02;;;;;;;22.63;20.35;;;;;;;4.94;79.50;95821.56;5016910;28;20298;-70
2022/12/04 01:59:37;;;;;;;21.33;19.35;;;;;;;4.85;78.94;95826.09;5016457;28;20205;-70
2022/12/04 02:02:09;;;;;;;21.23;19.13;;;;;;;4.82;79.61;95825.56;5017425;28;20217;-70
2022/12/04 02:04:39;;;;;;;22.38;20.17;;;;;;;4.80;79.69;95822.34;5016395;28;20306;-70
2022/12/04 02:07:13;;;;;;;20.75;18.80;;;;;;;4.83;79.87;95818.22;5016304;28;20206;-71
2022/12/04 02:09:44;;;;;;;20.67;18.77;;;;;;;4.83;79.84;95813.56;5033044;28;20581;-70
2022/12/04 02:12:23;;;;;;;19.92;17.92;;;;;;;4.83;79.64;95818.22;5017933;28;20179;-70
2022/12/04 02:14:59;;;;;;;18.30;16.60;;;;;;;4.81;79.38;95821.22;5033026;28;20203;-70
2022/12/04 02:17:32;;;;;;;18.65;16.85;;;;;;;4.82;79.66;95819.28;5016229;28;20210;-70
2022/12/04 02:20:09;;;;;;;18.55;16.60;;;;;;;4.80;80.01;95811.41;5032949;28;20199;-70
2022/12/04 02:23:04;;;;;;;18.67;16.77;;;;;;;4.81;79.56;95812.22;5017237;28;20279;-70
2022/12/04 02:25:45;;;;;;;17.95;16.15;;;;;;;4.81;80.05;95813.03;5030845;28;20243;-70
2022/12/04 02:28:21;;;;;;;17.67;16.00;;;;;;;4.84;80.21;95811.63;5016909;28;20233;-70
2022/12/04 02:30:54;;;;;;;17.70;16.00;;;;;;;4.86;80.37;95806.66;5032866;28;20266;-70
2022/12/04 02:33:24;;;;;;;18.83;16.92;;;;;;;4.82;79.84;95809.16;5016440;28;20221;-70
2022/12/04 02:35:58;;;;;;;17.83;16.15;;;;;;;4.74;79.82;95804.38;5016181;28;20210;-70
2022/12/04 02:38:32;;;;;;;17.55;15.82;;;;;;;4.77;80.30;95805.72;5017027;28;20185;-70
2022/12/04 02:41:09;;;;;;;16.90;15.30;;;;;;;4.78;80.28;95815.53;5030860;28;20210;-70
2022/12/04 02:43:43;;;;;;;17.45;15.68;;;;;;;4.79;80.11;95814.41;5032981;28;20220;-70
2022/12/04 02:46:20;;;;;;;16.60;15.00;;;;;;;4.78;80.33;95808.16;5017306;28;20206;-70
2022/12/04 02:48:49;;;;;;;16.67;15.13;;;;;;;4.71;80.35;95806.91;5017159;28;20618;-70
2022/12/04 02:51:23;;;;;;;15.75;14.25;;;;;;;4.71;80.46;95801.44;5016199;28;20191;-70
2022/12/04 02:53:58;;;;;;;17.67;16.02;;;;;;;4.69;80.35;95814.59;5016228;28;20209;-70
2022/12/04 02:56:29;;;;;;;17.45;15.85;;;;;;;4.67;80.21;95809.41;5032303;28;20201;-70
2022/12/04 02:59:04;;;;;;;17.17;15.57;;;;;;;4.67;80.04;95811.34;5016340;28;20195;-70
2022/12/04 03:01:37;;;;;;;15.07;13.63;;;;;;;4.58;80.02;95812.03;5017021;28;20197;-70
2022/12/04 03:04:09;;;;;;;15.15;13.82;;;;;;;4.62;80.23;95814.97;5015536;28;20239;-70
2022/12/04 03:06:37;;;;;;;15.02;13.73;;;;;;;4.65;80.19;95806.19;5016953;28;20192;-70
2022/12/04 03:09:11;;;;;;;15.57;14.07;;;;;;;4.68;80.09;95811.03;5017160;28;20187;-70
2022/12/04 03:11:44;;;;;;;16.95;15.35;;;;;;;4.68;80.13;95800.09;5014711;28;20209;-70
2022/12/04 03:14:17;;;;;;;17.42;15.82;;;;;;;4.64;79.53;95798.28;5015932;28;20198;-70
2022/12/04 03:16:47;;;;;;;16.67;15.13;;;;;;;4.61;79.39;95796.94;5018161;28;20249;-70
2022/12/04 03:19:17;;;;;;;16.17;14.68;;;;;;;4.59;79.10;95804.63;5019895;28;20195;-70
2022/12/04 03:21:51;;;;;;;16.77;14.93;;;;;;;4.55;79.37;95803.59;5019222;28;20223;-70
2022/12/04 03:24:33;;;;;;;16.45;14.90;;;;;;;4.51;79.21;95803.38;5019119;28;20195;-70
2022/12/04 03:27:05;;;;;;;16.25;14.75;;;;;;;4.50;79.82;95792.75;5018757;28;20333;-70
2022/12/04 03:29:42;;;;;;;15.35;13.85;;;;;;;4.50;79.53;95788.13;5019329;28;20225;-70
2022/12/04 03:32:13;;;;;;;15.13;13.73;;;;;;;4.50;79.80;95790.84;5020088;28;20215;-70
2022/12/04 03:34:48;;;;;;;15.73;14.18;;;;;;;4.49;79.43;95788.41;5019535;28;20191;-70
2022/12/04 03:37:21;;;;;;;16.38;14.77;;;;;;;4.47;79.29;95788.69;5035255;28;20202;-70
2022/12/04 03:39:58;;;;;;;14.88;13.48;;;;;;;4.47;79.49;95794.16;5019496;28;20226;-70
2022/12/04 03:42:30;;;;;;;15.50;14.10;;;;;;;4.47;79.52;95790.63;5019477;28;20219;-70
2022/12/04 03:45:04;;;;;;;15.05;13.52;;;;;;;4.45;79.29;95787.38;5018232;28;20611;-70
2022/12/04 03:47:35;;;;;;;14.60;13.20;;;;;;;4.46;79.67;95794.44;5018896;28;20214;-70
2022/12/04 03:50:11;;;;;;;15.38;13.77;;;;;;;4.39;79.00;95783.88;5034873;28;20210;-70
2022/12/04 03:52:46;;;;;;;15.73;14.25;;;;;;;4.31;79.37;95793.56;5019697;28;20198;-70
2022/12/04 03:55:18;;;;;;;15.48;13.88;;;;;;;4.32;79.29;95788.91;5020375;28;20187;-70
2022/12/04 03:57:47;;;;;;;15.35;13.85;;;;;;;4.31;79.45;95781.84;5019112;28;20230;-70
2022/12/04 04:00:18;;;;;;;16.17;14.68;;;;;;;4.30;79.22;95785.69;5018886;28;20532;-70
2022/12/04 04:02:50;;;;;;;15.40;13.80;;;;;;;4.25;79.24;95785.75;5018911;28;20211;-70
2022/12/04 04:05:22;;;;;;;15.05;13.55;;;;;;;4.23;79.48;95783.31;5019570;28;20211;-70
2022/12/04 04:07:53;;;;;;;14.23;12.82;;;;;;;4.28;79.78;95785.16;5019225;28;20294;-70
2022/12/04 04:10:28;;;;;;;13.73;12.52;;;;;;;4.29;79.87;95784.88;5032363;28;20623;-70
2022/12/04 04:24:31;;;;;;;13.60;12.20;;;;;;;4.39;79.94;95789.34;5018418;28;20226;-70
2022/12/04 04:27:01;;;;;;;13.93;12.52;;;;;;;4.45;80.22;95798.28;5016315;28;20239;-70
2022/12/04 04:29:29;;;;;;;13.55;12.25;;;;;;;4.46;80.21;95791.72;5018108;28;20207;-70
2022/12/04 04:32:04;;;;;;;12.45;11.32;;;;;;;4.47;79.74;95794.16;5018697;28;20195;-70
2022/12/04 04:34:39;;;;;;;12.68;11.63;;;;;;;4.45;79.71;95798.28;5018520;28;20195;-70
2022/12/04 04:37:17;;;;;;;12.20;11.13;;;;;;;4.47;79.94;95802.38;5017484;28;20214;-70
2022/12/04 04:39:51;;;;;;;11.82;10.73;;;;;;;4.48;79.50;95801.25;5019014;28;20186;-70
2022/12/04 04:42:27;;;;;;;11.40;10.48;;;;;;;4.46;79.85;95797.19;5017356;28;20213;-70
2022/12/04 04:45:03;;;;;;;11.45;10.48;;;;;;;4.44;79.96;95792.03;5019367;28;20269;-70
2022/12/04 04:47:39;;;;;;;12.35;11.25;;;;;;;4.45;80.42;95798.28;5017825;28;20198;-70
2022/12/04 04:50:10;;;;;;;11.45;10.35;;;;;;;4.45;80.37;95807.28;5018225;28;20205;-70
2022/12/04 04:52:44;;;;;;;12.38;11.27;;;;;;;4.49;80.65;95805.59;5018738;28;20219;-70
2022/12/04 04:55:13;;;;;;;12.30;11.02;;;;;;;4.55;80.41;95812.63;5018757;28;20186;-70
2022/12/04 04:57:41;;;;;;;11.40;10.40;;;;;;;4.57;80.56;95810.41;5018896;28;20184;-70
2022/12/04 05:00:13;;;;;;;11.75;10.65;;;;;;;4.58;80.54;95812.03;5033952;28;20191;-70
2022/12/04 05:02:44;;;;;;;11.68;10.65;;;;;;;4.64;80.93;95817.41;5033321;28;20218;-70
2022/12/04 05:05:13;;;;;;;12.10;11.00;;;;;;;4.67;80.71;95819.53;5017978;28;20618;-70
2022/12/04 05:07:44;;;;;;;12.30;11.20;;;;;;;4.67;80.59;95814.88;5017467;28;20274;-70
2022/12/04 05:10:12;;;;;;;11.07;10.18;;;;;;;4.67;80.27;95814.06;5017846;28;20671;-70
2022/12/04 05:12:41;;;;;;;11.18;10.15;;;;;;;4.68;80.36;95827.44;5017135;28;20623;-70
2022/12/04 05:15:11;;;;;;;9.90;9.10;;;;;;;4.72;80.18;95830.38;5017613;28;20191;-70
2022/12/04 05:17:40;;;;;;;10.75;9.85;;;;;;;4.73;80.52;95832.03;5017627;28;20213;-70
2022/12/04 05:20:12;;;;;;;10.98;10.07;;;;;;;4.70;80.42;95829.88;5017669;28;20553;-70
2022/12/04 05:22:40;;;;;;;10.75;9.88;;;;;;;4.71;80.61;95834.22;5017753;28;20195;-70
2022/12/04 05:25:08;;;;;;;12.75;11.55;;;;;;;4.72;80.33;95838.59;5017085;28;20671;-70
2022/12/04 05:27:35;;;;;;;13.52;12.43;;;;;;;4.74;80.40;95845.38;5018383;28;20192;-70
2022/12/04 05:30:06;;;;;;;10.38;9.38;;;;;;;4.74;80.50;95839.91;5017703;28;20235;-70
2022/12/04 05:32:35;;;;;;;9.77;8.88;;;;;;;4.75;80.41;95833.34;5034197;28;20214;-70
2022/12/04 05:35:02;;;;;;;9.10;8.32;;;;;;;4.76;80.54;95829.50;5017687;28;20195;-70
2022/12/04 05:37:39;;;;;;;8.68;7.97;;;;;;;4.77;80.55;95830.31;5017238;28;20211;-70
2022/12/04 05:40:12;;;;;;;8.73;8.02;;;;;;;4.75;80.50;95836.06;5015956;28;20202;-70
2022/12/04 05:42:44;;;;;;;8.35;7.65;;;;;;;4.75;80.51;95844.25;5017157;28;20273;-70
2022/12/04 05:45:12;;;;;;;8.98;8.20;;;;;;;4.75;80.72;95835.25;5017525;28;20195;-70
2022/12/04 05:47:41;;;;;;;9.32;8.63;;;;;;;4.76;80.72;95834.16;5017894;28;20195;-70
2022/12/04 05:50:12;;;;;;;9.00;8.30;;;;;;;4.71;80.75;95835.03;5019136;28;20192;-70
2022/12/04 05:52:42;;;;;;;8.70;8.00;;;;;;;4.67;80.94;95847.69;5017155;28;20203;-70
2022/12/04 05:55:09;;;;;;;9.00;8.30;;;;;;;4.68;80.52;95848.47;5016193;28;20235;-70
2022/12/04 05:57:37;;;;;;;11.13;10.20;;;;;;;4.68;80.65;95840.28;5016703;28;20242;-70
2022/12/04 06:00:09;;;;;;;11.20;10.13;;;;;;;4.57;80.24;95834.16;5017153;28;20209;-70
2022/12/04 06:02:38;;;;;;;11.15;10.23;;;;;;;4.51;80.24;95841.63;5032753;28;20647;-70
2022/12/04 06:05:07;;;;;;;12.70;11.68;;;;;;;4.45;80.15;95848.28;5016292;28;20215;-70
2022/12/04 06:07:35;;;;;;;12.25;10.70;;;;;;;4.41;80.17;95847.25;5016497;28;20209;-70
2022/12/04 06:10:09;;;;;;;10.20;9.30;;;;;;;4.42;80.89;95842.59;5016692;28;20195;-70
2022/12/04 06:12:37;;;;;;;10.23;9.20;;;;;;;4.43;80.53;95850.50;5016652;28;20182;-70
2022/12/04 06:15:05;;;;;;;10.18;9.27;;;;;;;4.42;81.01;95850.78;5016480;28;20222;-70
2022/12/04 06:17:32;;;;;;;9.93;9.02;;;;;;;4.47;80.95;95854.25;5017895;28;20195;-70
2022/12/04 06:20:00;;;;;;;9.75;8.88;;;;;;;4.51;81.23;95844.38;5018793;28;20205;-70
2022/12/04 06:22:29;;;;;;;9.38;8.57;;;;;;;4.55;80.97;95850.06;5017122;28;20214;-70
2022/12/04 06:25:01;;;;;;;10.20;9.30;;;;;;;4.60;81.25;95855.44;5017518;28;20539;-70
2022/12/04 06:27:31;;;;;;;12.38;11.13;;;;;;;4.65;80.97;95847.19;5015706;28;20235;-70
2022/12/04 06:30:00;;;;;;;11.82;10.80;;;;;;;4.64;80.72;95842.81;5017036;28;20194;-70
2022/12/04 06:32:29;;;;;;;12.88;11.70;;;;;;;4.62;80.94;95845.03;5016736;28;20203;-70
2022/12/04 06:34:56;;;;;;;12.30;11.23;;;;;;;4.60;80.78;95849.97;5017327;28;20183;-70
2022/12/04 06:37:25;;;;;;;13.75;12.60;;;;;;;4.65;80.83;95849.06;5016297;28;20210;-70
2022/12/04 06:39:55;;;;;;;12.77;11.73;;;;;;;4.66;80.45;95857.00;5032845;28;20211;-70
2022/12/04 06:42:23;;;;;;;12.25;11.15;;;;;;;4.72;80.60;95858.56;5017225;28;20507;-70
2022/12/04 06:44:57;;;;;;;13.70;12.50;;;;;;;4.76;80.96;95856.03;5015755;28;20218;-70
2022/12/04 06:47:26;;;;;;;17.05;15.35;;;;;;;4.75;80.76;95868.06;5016281;28;20209;-70
2022/12/04 06:49:54;;;;;;;17.33;15.57;;;;;;;4.72;80.85;95864.00;5017176;28;20203;-70
2022/12/04 06:52:24;;;;;;;16.10;14.50;;;;;;;4.73;80.84;95862.91;5020695;28;20215;-70
2022/12/04 06:54:54;;;;;;;15.23;13.63;;;;;;;4.80;80.99;95862.53;5020013;28;20210;-70
2022/12/04 06:57:22;;;;;;;13.13;11.90;;;;;;;4.86;80.65;95865.97;5020372;28;20187;-70
2022/12/04 06:59:52;;;;;;;13.50;12.20;;;;;;;4.90;80.59;95865.09;5020932;28;20221;-70
2022/12/04 07:02:23;;;;;;;13.90;12.50;;;;;;;4.97;80.69;95859.25;5019874;28;20203;-70
2022/12/04 07:04:55;;;;;;;14.90;13.43;;;;;;;5.05;80.76;95853.13;5035851;28;20242;-70
2022/12/04 07:07:23;;;;;;;13.63;12.43;;;;;;;5.12;80.86;95849.97;5019757;28;20203;-70
2022/12/04 07:09:52;;;;;;;13.98;12.77;;;;;;;5.19;80.63;95864.91;5018930;28;20198;-70
2022/12/04 07:12:20;;;;;;;12.50;11.02;;;;;;;5.25;80.36;95854.69;5019540;28;20201;-70
2022/12/04 07:14:48;;;;;;;11.85;10.82;;;;;;;5.36;80.29;95849.84;5019241;28;20221;-70
2022/12/04 07:17:16;;;;;;;11.70;10.50;;;;;;;5.51;80.67;95855.84;5019393;28;20199;-70
2022/12/04 07:19:50;;;;;;;11.73;10.65;;;;;;;5.60;80.46;95858.72;5034360;28;20272;-70
2022/12/04 07:22:20;;;;;;;12.55;11.38;;;;;;;5.73;80.05;95866.13;5019535;28;20225;-70
2022/12/04 07:24:48;;;;;;;11.50;10.50;;;;;;;5.87;80.12;95862.59;5018746;28;20234;-70
2022/12/04 07:27:18;;;;;;;10.80;9.85;;;;;;;5.99;79.43;95858.28;5034751;28;20235;-70
2022/12/04 07:29:46;;;;;;;9.68;8.77;;;;;;;6.13;79.35;95871.94;5019641;28;20183;-70
2022/12/04 07:32:14;;;;;;;8.73;8.00;;;;;;;6.23;79.21;95868.19;5019025;28;20561;-70
2022/12/04 07:34:41;;;;;;;9.38;8.57;;;;;;;6.31;78.59;95866.66;5018614;28;20206;-70
2022/12/04 07:37:10;;;;;;;9.75;8.95;;;;;;;6.35;78.48;95860.25;5018196;28;20207;-70
2022/12/04 07:39:36;;;;;;;9.40;8.60;;;;;;;6.38;78.30;95856.91;5018098;28;20199;-70
2022/12/04 07:42:05;;;;;;;9.90;8.90;;;;;;;6.43;78.47;95875.19;5017840;28;20207;-70
2022/12/04 07:44:32;;;;;;;10.65;9.70;;;;;;;6.40;78.00;95864.84;5017766;28;20547;-70
2022/12/04 07:49:45;;;;;;;8.55;7.75;;;;;;;6.42;78.28;95855.16;5018622;28;20205;-70
2022/12/04 07:52:13;;;;;;;7.28;6.57;;;;;;;6.46;77.76;95856.19;5018512;28;20260;-70
2022/12/04 07:54:40;;;;;;;6.78;6.18;;;;;;;6.48;77.98;95864.09;5017623;28;20210;-70
2022/12/04 07:57:08;;;;;;;6.53;5.90;;;;;;;6.52;78.19;95862.38;5018646;28;20188;-70
2022/12/04 07:59:36;;;;;;;6.32;5.82;;;;;;;6.54;77.54;95862.06;5001420;28;20203;-70
2022/12/04 08:02:05;;;;;;;6.00;5.50;;;;;;;6.54;77.14;95849.19;5016800;28;20203;-70
2022/12/04 08:04:32;;;;;;;6.40;5.80;;;;;;;6.54;77.10;95862.06;5017311;28;20229;-70
2022/12/04 08:06:59;;;;;;;6.82;6.22;;;;;;;6.57;77.28;95867.72;5017536;28;20199;-70
2022/12/04 08:09:28;;;;;;;6.50;5.90;;;;;;;6.55;77.11;95864.50;5017483;28;20199;-70
2022/12/04 08:11:56;;;;;;;6.60;6.00;;;;;;;6.57;76.80;95869.66;5017314;28;20596;-70
2022/12/04 08:14:23;;;;;;;5.97;5.45;;;;;;;6.62;76.67;95861.34;5018255;28;20183;-69
2022/12/04 08:16:51;;;;;;;6.10;5.57;;;;;;;6.63;76.40;95854.72;5018037;28;20210;-69
2022/12/04 08:19:18;;;;;;;5.18;4.78;;;;;;;6.65;76.80;95866.22;5018264;28;20183;-69
2022/12/04 08:21:45;;;;;;;5.53;5.03;;;;;;;6.64;76.39;95850.88;5019290;28;20290;-69
2022/12/04 08:24:12;;;;;;;6.57;5.97;;;;;;;6.59;76.04;95856.47;5017015;28;20238;-70
2022/12/04 08:26:41;;;;;;;4.93;4.53;;;;;;;6.63;76.30;95857.47;5016802;28;20238;-69
2022/12/04 08:29:09;;;;;;;5.30;4.80;;;;;;;6.65;76.16;95856.06;5017477;28;20199;-69
2022/12/04 08:31:36;;;;;;;5.47;4.97;;;;;;;6.65;76.50;95866.22;5017500;28;20195;-69
2022/12/04 08:34:04;;;;;;;6.10;5.50;;;;;;;6.64;76.28;95865.38;5017349;28;20199;-70
2022/12/04 08:36:31;;;;;;;6.38;4.65;;;;;;;6.65;76.03;95858.00;5016632;28;20195;-70
2022/12/04 08:38:58;;;;;;;5.18;4.78;;;;;;;6.65;76.05;95852.50;5017013;28;20210;-70
2022/12/04 08:41:26;;;;;;;5.07;4.57;;;;;;;6.62;75.66;95851.19;5017260;28;20527;-70
2022/12/04 08:43:56;;;;;;;4.70;4.13;;;;;;;6.59;75.38;95856.47;5017772;28;20211;-70
2022/12/04 08:46:25;;;;;;;4.70;4.30;;;;;;;6.61;75.57;95846.84;5017171;28;20362;-69
2022/12/04 08:48:52;;;;;;;4.80;4.30;;;;;;;6.67;75.22;95845.56;5017096;28;20202;-70
2022/12/04 08:51:21;;;;;;;4.78;4.40;;;;;;;6.65;75.50;95849.75;5017239;28;20207;-70
2022/12/04 08:53:48;;;;;;;5.68;4.70;;;;;;;6.72;75.37;95859.19;5017090;28;20218;-69
2022/12/04 08:56:15;;;;;;;5.22;4.75;;;;;;;6.76;75.17;95848.41;5017666;28;20209;-69
2022/12/04 08:58:43;;;;;;;4.78;4.38;;;;;;;6.73;74.80;95855.31;5017318;28;20198;-70
2022/12/04 09:01:13;;;;;;;4.55;4.15;;;;;;;6.68;74.88;95836.25;5016685;28;20210;-70
2022/12/04 09:03:41;;;;;;;5.05;4.38;;;;;;;6.71;74.73;95838.34;5017236;28;20203;-70
2022/12/04 09:06:10;;;;;;;4.47;4.07;;;;;;;6.73;74.47;95833.38;5017168;28;20238;-70
2022/12/04 09:08:37;;;;;;;4.70;4.30;;;;;;;6.84;74.53;95825.72;5016964;28;20203;-70
2022/12/04 09:11:05;;;;;;;5.07;4.68;;;;;;;6.94;74.36;95819.19;5016873;28;20206;-69
2022/12/04 09:13:34;;;;;;;4.88;4.47;;;;;;;6.95;73.73;95829.03;5016302;28;20188;-70
2022/12/04 09:16:04;;;;;;;5.10;4.70;;;;;;;6.92;74.19;95833.19;5016281;28;20681;-69
2022/12/04 09:18:32;;;;;;;5.10;4.65;;;;;;;6.91;74.15;95830.78;5017242;28;20194;-70
2022/12/04 09:21:02;;;;;;;5.72;5.25;;;;;;;7.01;74.30;95827.81;5016670;28;20183;-70
2022/12/04 09:23:30;;;;;;;5.05;4.55;;;;;;;7.10;74.26;95814.94;5015176;28;20210;-70
2022/12/04 09:25:57;;;;;;;5.15;4.68;;;;;;;7.12;73.84;95807.22;5022720;28;20238;-69
2022/12/04 09:28:25;;;;;;;5.28;4.78;;;;;;;7.09;73.60;95807.03;5019490;28;20606;-70
2022/12/04 09:30:59;;;;;;;5.53;4.97;;;;;;;7.08;73.14;95792.50;5019492;28;20202;-69
2022/12/04 09:33:29;;;;;;;5.40;4.90;;;;;;;7.10;73.72;95795.75;5038005;28;20186;-69
2022/12/04 09:35:58;;;;;;;5.10;4.70;;;;;;;7.07;73.58;95803.78;5021193;28;20205;-69
2022/12/04 09:38:27;;;;;;;5.25;4.85;;;;;;;7.13;73.38;95797.88;5019774;28;20211;-69
2022/12/04 09:40:58;;;;;;;5.25;4.80;;;;;;;7.18;73.65;95794.97;5037571;28;20200;-69
2022/12/04 09:43:31;;;;;;;5.53;5.03;;;;;;;7.11;73.98;95772.66;5037475;28;20182;-69
2022/12/04 09:46:03;;;;;;;6.45;5.60;;;;;;;7.10;74.49;95778.47;5019411;28;20233;-69
2022/12/04 09:48:33;;;;;;;6.28;5.68;;;;;;;7.13;74.20;95780.59;5036849;28;20201;-69
2022/12/04 09:51:02;;;;;;;6.75;6.15;;;;;;;7.17;74.02;95781.59;5036905;28;20198;-69
2022/12/04 09:53:35;;;;;;;5.88;5.38;;;;;;;7.41;73.83;95781.25;5037063;28;20201;-69
2022/12/04 09:56:05;;;;;;;5.53;5.03;;;;;;;7.55;72.89;95778.38;5019137;28;20205;-69
2022/12/04 09:58:38;;;;;;;4.82;4.43;;;;;;;7.47;72.12;95771.72;5019190;28;20187;-69
2022/12/04 10:01:05;;;;;;;4.85;4.45;;;;;;;7.35;72.75;95761.34;5036576;28;20179;-69
2022/12/04 10:03:32;;;;;;;5.13;4.70;;;;;;;7.36;72.95;95757.47;5019619;28;20198;-69
2022/12/04 10:06:07;;;;;;;5.38;4.55;;;;;;;7.29;72.86;95754.38;5018823;28;20225;-69
2022/12/04 10:08:35;;;;;;;5.18;4.72;;;;;;;7.28;72.92;95751.94;5036521;28;20186;-69
2022/12/04 10:11:06;;;;;;;5.25;4.80;;;;;;;7.34;73.04;95747.94;5036480;28;20187;-69
2022/12/04 10:13:49;;;;;;;5.47;4.97;;;;;;;7.52;72.63;95737.88;5018437;28;20633;-69
2022/12/04 10:16:19;;;;;;;6.15;5.40;;;;;;;7.60;72.82;95735.13;5018934;28;20191;-69
2022/12/04 10:18:50;;;;;;;5.22;4.82;;;;;;;7.58;72.70;95729.13;5036936;28;20210;-69
2022/12/04 10:21:28;;;;;;;5.63;5.07;;;;;;;7.51;72.09;95728.78;5019652;28;20264;-69
2022/12/04 10:24:05;;;;;;;5.93;5.43;;;;;;;7.48;72.73;95723.97;5036039;28;20554;-69
2022/12/04 10:26:36;;;;;;;5.22;4.70;;;;;;;7.41;72.84;95729.09;5035505;28;20244;-69
2022/12/04 10:29:07;;;;;;;5.30;4.90;;;;;;;7.29;72.51;95718.69;5018973;28;20202;-69
2022/12/04 10:31:34;;;;;;;6.25;5.40;;;;;;;7.28;73.15;95719.03;5035805;28;20187;-69
2022/12/04 10:34:03;;;;;;;6.03;5.53;;;;;;;7.30;73.33;95720.34;5035712;28;20209;-69
2022/12/04 10:36:34;;;;;;;5.50;5.00;;;;;;;7.40;72.69;95728.25;5036139;28;20183;-69
2022/12/04 10:39:03;;;;;;;5.95;5.07;;;;;;;7.51;72.67;95719.75;5018374;28;20195;-69
2022/12/04 10:41:38;;;;;;;5.43;5.03;;;;;;;7.50;72.33;95713.47;5018306;28;20542;-69
2022/12/04 10:44:08;;;;;;;5.30;4.90;;;;;;;7.45;72.55;95700.69;5035691;28;20701;-69
2022/12/04 10:46:35;;;;;;;6.20;5.70;;;;;;;7.43;72.22;95702.13;5036040;28;20190;-69
2022/12/04 10:49:05;;;;;;;6.30;5.70;;;;;;;7.43;72.53;95705.69;5018441;28;20190;-69
2022/12/04 10:51:38;;;;;;;5.65;5.20;;;;;;;7.48;72.34;95719.28;5035608;28;20171;-69
2022/12/04 10:54:13;;;;;;;5.45;4.97;;;;;;;7.36;72.14;95708.06;5035492;28;20194;-69
2022/12/04 10:56:51;;;;;;;5.53;5.03;;;;;;;7.42;72.27;95706.81;5035518;28;20273;-69
2022/12/04 10:59:18;;;;;;;6.15;5.65;;;;;;;7.38;72.42;95708.56;5035740;28;20187;-69
2022/12/04 11:01:45;;;;;;;6.20;5.60;;;;;;;7.45;72.07;95705.38;5018172;28;20554;-69
2022/12/04 11:04:21;;;;;;;6.60;6.00;;;;;;;7.53;71.81;95709.28;5018814;28;20203;-69
2022/12/04 11:06:50;;;;;;;5.45;5.03;;;;;;;7.68;71.36;95706.91;5018519;28;20197;-69
2022/12/04 11:09:22;;;;;;;6.00;5.50;;;;;;;7.74;70.70;95701.28;5018704;28;20206;-69
2022/12/04 11:11:49;;;;;;;4.70;4.30;;;;;;;8.00;69.60;95693.06;5018343;28;20639;-69
2022/12/04 11:14:18;;;;;;;5.22;3.78;;;;;;;8.18;69.18;95683.72;5018392;28;20206;-69
2022/12/04 11:16:48;;;;;;;4.68;4.38;;;;;;;8.54;68.91;95679.88;5018449;28;20301;-69
2022/12/04 11:19:20;;;;;;;6.25;5.68;;;;;;;8.51;68.05;95692.31;5019110;28;20197;-69
2022/12/04 11:21:49;;;;;;;5.80;5.30;;;;;;;8.32;68.54;95698.13;5018448;28;20540;-69
2022/12/04 11:24:21;;;;;;;6.22;5.72;;;;;;;8.34;68.76;95684.03;5018890;28;20309;-69
2022/12/04 11:26:48;;;;;;;5.45;5.05;;;;;;;8.50;68.09;95682.47;5018557;28;20233;-69
2022/12/04 11:29:19;;;;;;;5.22;4.05;;;;;;;8.69;66.59;95687.59;5018745;28;20198;-69
2022/12/04 11:31:48;;;;;;;5.13;4.68;;;;;;;8.97;66.15;95685.28;5019003;28;20263;-69
2022/12/04 11:34:18;;;;;;;4.03;3.72;;;;;;;9.07;64.19;95684.13;5019402;28;20191;-70
2022/12/04 11:36:52;;;;;;;4.35;4.05;;;;;;;9.56;63.57;95677.13;5019773;28;20213;-69
2022/12/04 11:39:20;;;;;;;4.00;3.70;;;;;;;10.58;60.98;95683.44;5023180;28;20319;-69
2022/12/04 11:41:48;;;;;;;4.50;4.10;;;;;;;11.37;58.00;95683.47;5023889;28;20201;-70
2022/12/04 11:44:25;;;;;;;4.97;4.57;;;;;;;11.81;56.79;95687.28;5023805;28;20695;-69
2022/12/04 11:46:54;;;;;;;4.97;4.47;;;;;;;11.61;56.37;95696.47;5023551;28;20210;-69
2022/12/04 11:49:22;;;;;;;4.10;3.80;;;;;;;11.32;57.03;95695.50;5023594;28;20581;-70
2022/12/04 11:51:55;;;;;;;4.00;3.60;;;;;;;11.23;56.67;95697.59;5039842;28;20182;-69
2022/12/04 11:54:29;;;;;;;3.60;3.30;;;;;;;10.98;56.67;95686.47;5039581;28;20198;-69
2022/12/04 11:57:05;;;;;;;4.40;4.10;;;;;;;10.95;56.92;95700.94;5022174;28;20194;-69
2022/12/04 11:59:48;;;;;;;4.00;3.70;;;;;;;11.03;57.22;95694.53;5022032;28;20190;-69
2022/12/04 12:02:33;;;;;;;4.13;3.83;;;;;;;11.40;56.27;95702.09;5039933;28;20573;-69